sensor_id;sensor_type;location;lat;lon;timestamp;P1;durP1;ratioP1;P2;durP2;ratioP2
51034;SDS011;37062;52.546;13.230;2022-09-17T00:00:59;3.95;;;1.35;;
51034;SDS011;37062;52.546;13.230;2022-09-17T00:03:30;8.35;;;2.10;;
51034;SDS011;37062;52.546;13.230;2022-09-17T00:06:05;6.85;;;1.67;;
51034;SDS011;37062;52.546;13.230;2022-09-17T00:08:35;4.93;;;1.67;;
51034;SDS011;37062;52.546;13.230;2022-09-17T00:11:09;5.47;;;1.55;;
51034;SDS011;37062;52.546;13.230;2022-09-17T00:13:38;5.38;;;1.70;;
51034;SDS011;37062;52.546;13.230;2022-09-17T00:16:06;4.60;;;1.60;;
51034;SDS011;37062;52.546;13.230;2022-09-17T00:18:34;6.88;;;1.60;;
51034;SDS011;37062;52.546;13.230;2022-09-17T00:21:05;4.22;;;1.25;;
51034;SDS011;37062;52.546;13.230;2022-09-17T00:23:33;7.13;;;1.45;;
51034;SDS011;37062;52.546;13.230;2022-09-17T00:26:03;6.40;;;1.75;;
51034;SDS011;37062;52.546;13.230;2022-09-17T00:28:33;6.28;;;1.60;;
51034;SDS011;37062;52.546;13.230;2022-09-17T00:31:05;4.28;;;1.30;;
51034;SDS011;37062;52.546;13.230;2022-09-17T00:33:33;8.93;;;2.00;;
51034;SDS011;37062;52.546;13.230;2022-09-17T00:36:01;5.97;;;1.90;;
51034;SDS011;37062;52.546;13.230;2022-09-17T00:38:32;5.03;;;1.75;;
51034;SDS011;37062;52.546;13.230;2022-09-17T00:41:00;5.95;;;1.70;;
51034;SDS011;37062;52.546;13.230;2022-09-17T00:43:39;7.65;;;2.05;;
51034;SDS011;37062;52.546;13.230;2022-09-17T00:46:14;5.93;;;1.92;;
51034;SDS011;37062;52.546;13.230;2022-09-17T00:48:48;7.35;;;1.70;;
51034;SDS011;37062;52.546;13.230;2022-09-17T00:51:19;6.05;;;1.98;;
51034;SDS011;37062;52.546;13.230;2022-09-17T00:53:51;7.22;;;2.00;;
51034;SDS011;37062;52.546;13.230;2022-09-17T00:56:20;6.53;;;1.70;;
51034;SDS011;37062;52.546;13.230;2022-09-17T00:58:52;7.47;;;1.92;;
51034;SDS011;37062;52.546;13.230;2022-09-17T01:01:21;3.95;;;1.55;;
51034;SDS011;37062;52.546;13.230;2022-09-17T01:03:48;4.28;;;1.50;;
51034;SDS011;37062;52.546;13.230;2022-09-17T01:06:19;5.70;;;1.65;;
51034;SDS011;37062;52.546;13.230;2022-09-17T01:09:03;5.07;;;1.40;;
51034;SDS011;37062;52.546;13.230;2022-09-17T01:11:49;6.95;;;1.60;;
51034;SDS011;37062;52.546;13.230;2022-09-17T01:14:37;6.13;;;1.70;;
51034;SDS011;37062;52.546;13.230;2022-09-17T01:17:18;6.78;;;1.52;;
51034;SDS011;37062;52.546;13.230;2022-09-17T01:20:04;8.85;;;1.75;;
51034;SDS011;37062;52.546;13.230;2022-09-17T01:22:52;5.57;;;1.60;;
51034;SDS011;37062;52.546;13.230;2022-09-17T01:25:37;4.75;;;1.40;;
51034;SDS011;37062;52.546;13.230;2022-09-17T01:28:14;10.18;;;2.13;;
51034;SDS011;37062;52.546;13.230;2022-09-17T01:31:04;6.10;;;2.13;;
51034;SDS011;37062;52.546;13.230;2022-09-17T01:33:49;9.63;;;1.58;;
51034;SDS011;37062;52.546;13.230;2022-09-17T01:36:26;7.55;;;1.70;;
51034;SDS011;37062;52.546;13.230;2022-09-17T01:39:02;7.55;;;2.35;;
51034;SDS011;37062;52.546;13.230;2022-09-17T01:41:37;7.47;;;2.13;;
51034;SDS011;37062;52.546;13.230;2022-09-17T01:44:12;7.85;;;1.60;;
51034;SDS011;37062;52.546;13.230;2022-09-17T01:46:48;9.68;;;2.25;;
51034;SDS011;37062;52.546;13.230;2022-09-17T01:49:19;6.10;;;1.90;;
51034;SDS011;37062;52.546;13.230;2022-09-17T01:51:50;10.32;;;1.88;;
51034;SDS011;37062;52.546;13.230;2022-09-17T01:54:19;16.25;;;3.25;;
51034;SDS011;37062;52.546;13.230;2022-09-17T01:56:52;9.55;;;1.80;;
51034;SDS011;37062;52.546;13.230;2022-09-17T01:59:24;6.68;;;1.77;;
51034;SDS011;37062;52.546;13.230;2022-09-17T02:01:58;12.27;;;2.08;;
51034;SDS011;37062;52.546;13.230;2022-09-17T02:04:32;10.18;;;2.03;;
51034;SDS011;37062;52.546;13.230;2022-09-17T02:07:03;8.07;;;1.75;;
51034;SDS011;37062;52.546;13.230;2022-09-17T02:09:35;9.57;;;1.95;;
51034;SDS011;37062;52.546;13.230;2022-09-17T02:12:08;8.75;;;1.77;;
51034;SDS011;37062;52.546;13.230;2022-09-17T02:14:38;9.32;;;2.17;;
51034;SDS011;37062;52.546;13.230;2022-09-17T02:17:11;6.20;;;1.92;;
51034;SDS011;37062;52.546;13.230;2022-09-17T02:19:45;9.45;;;1.80;;
51034;SDS011;37062;52.546;13.230;2022-09-17T02:22:15;7.22;;;2.15;;
51034;SDS011;37062;52.546;13.230;2022-09-17T02:24:49;7.32;;;1.77;;
51034;SDS011;37062;52.546;13.230;2022-09-17T02:27:29;9.30;;;2.40;;
51034;SDS011;37062;52.546;13.230;2022-09-17T02:30:07;7.88;;;2.10;;
51034;SDS011;37062;52.546;13.230;2022-09-17T02:32:37;9.95;;;2.28;;
51034;SDS011;37062;52.546;13.230;2022-09-17T02:35:05;9.88;;;1.90;;
51034;SDS011;37062;52.546;13.230;2022-09-17T02:37:33;8.60;;;2.65;;
51034;SDS011;37062;52.546;13.230;2022-09-17T02:40:00;13.88;;;2.55;;
51034;SDS011;37062;52.546;13.230;2022-09-17T02:42:30;7.05;;;2.13;;
51034;SDS011;37062;52.546;13.230;2022-09-17T02:45:05;6.70;;;2.30;;
51034;SDS011;37062;52.546;13.230;2022-09-17T02:50:51;9.20;;;2.20;;
51034;SDS011;37062;52.546;13.230;2022-09-17T02:53:42;7.53;;;2.50;;
51034;SDS011;37062;52.546;13.230;2022-09-17T02:56:17;9.60;;;2.28;;
51034;SDS011;37062;52.546;13.230;2022-09-17T02:58:52;3.72;;;1.55;;
51034;SDS011;37062;52.546;13.230;2022-09-17T03:01:27;6.30;;;2.20;;
51034;SDS011;37062;52.546;13.230;2022-09-17T03:04:01;9.55;;;2.42;;
51034;SDS011;37062;52.546;13.230;2022-09-17T03:06:30;12.73;;;2.30;;
51034;SDS011;37062;52.546;13.230;2022-09-17T03:08:58;6.95;;;1.92;;
51034;SDS011;37062;52.546;13.230;2022-09-17T03:11:25;8.05;;;2.15;;
51034;SDS011;37062;52.546;13.230;2022-09-17T03:13:53;6.32;;;1.95;;
51034;SDS011;37062;52.546;13.230;2022-09-17T03:16:22;9.00;;;2.67;;
51034;SDS011;37062;52.546;13.230;2022-09-17T03:18:50;9.07;;;2.22;;
51034;SDS011;37062;52.546;13.230;2022-09-17T03:21:18;9.30;;;2.05;;
51034;SDS011;37062;52.546;13.230;2022-09-17T03:23:46;7.88;;;1.88;;
51034;SDS011;37062;52.546;13.230;2022-09-17T03:26:13;6.10;;;2.08;;
51034;SDS011;37062;52.546;13.230;2022-09-17T03:28:41;6.75;;;1.92;;
51034;SDS011;37062;52.546;13.230;2022-09-17T03:31:08;10.80;;;2.38;;
51034;SDS011;37062;52.546;13.230;2022-09-17T03:33:36;6.07;;;1.58;;
51034;SDS011;37062;52.546;13.230;2022-09-17T03:36:06;5.85;;;1.75;;
51034;SDS011;37062;52.546;13.230;2022-09-17T03:38:35;6.28;;;1.92;;
51034;SDS011;37062;52.546;13.230;2022-09-17T03:41:04;5.75;;;1.90;;
51034;SDS011;37062;52.546;13.230;2022-09-17T03:43:32;11.57;;;2.20;;
51034;SDS011;37062;52.546;13.230;2022-09-17T03:46:00;4.82;;;1.65;;
51034;SDS011;37062;52.546;13.230;2022-09-17T03:48:30;8.18;;;2.13;;
51034;SDS011;37062;52.546;13.230;2022-09-17T03:51:05;6.07;;;1.67;;
51034;SDS011;37062;52.546;13.230;2022-09-17T03:53:33;8.10;;;2.42;;
51034;SDS011;37062;52.546;13.230;2022-09-17T03:56:05;8.02;;;1.85;;
51034;SDS011;37062;52.546;13.230;2022-09-17T03:58:32;9.52;;;2.25;;
51034;SDS011;37062;52.546;13.230;2022-09-17T04:01:01;9.50;;;2.20;;
51034;SDS011;37062;52.546;13.230;2022-09-17T04:03:30;13.68;;;3.03;;
51034;SDS011;37062;52.546;13.230;2022-09-17T04:05:58;8.77;;;1.80;;
51034;SDS011;37062;52.546;13.230;2022-09-17T04:08:26;8.30;;;2.40;;
51034;SDS011;37062;52.546;13.230;2022-09-17T04:10:53;9.45;;;1.98;;
51034;SDS011;37062;52.546;13.230;2022-09-17T04:13:22;8.00;;;2.00;;
51034;SDS011;37062;52.546;13.230;2022-09-17T04:15:49;8.38;;;2.05;;
51034;SDS011;37062;52.546;13.230;2022-09-17T04:18:17;3.78;;;1.70;;
51034;SDS011;37062;52.546;13.230;2022-09-17T04:20:45;7.28;;;1.85;;
51034;SDS011;37062;52.546;13.230;2022-09-17T04:23:12;10.32;;;2.20;;
51034;SDS011;37062;52.546;13.230;2022-09-17T04:25:40;8.75;;;2.00;;
51034;SDS011;37062;52.546;13.230;2022-09-17T04:28:07;7.32;;;2.22;;
51034;SDS011;37062;52.546;13.230;2022-09-17T04:30:36;9.75;;;2.60;;
51034;SDS011;37062;52.546;13.230;2022-09-17T04:33:04;4.95;;;1.58;;
51034;SDS011;37062;52.546;13.230;2022-09-17T04:35:31;8.45;;;2.10;;
51034;SDS011;37062;52.546;13.230;2022-09-17T04:37:58;7.63;;;2.22;;
51034;SDS011;37062;52.546;13.230;2022-09-17T04:40:26;9.10;;;2.20;;
51034;SDS011;37062;52.546;13.230;2022-09-17T04:42:55;7.15;;;1.85;;
51034;SDS011;37062;52.546;13.230;2022-09-17T04:45:24;7.28;;;2.08;;
51034;SDS011;37062;52.546;13.230;2022-09-17T04:47:53;7.40;;;1.77;;
51034;SDS011;37062;52.546;13.230;2022-09-17T04:50:21;7.78;;;2.50;;
51034;SDS011;37062;52.546;13.230;2022-09-17T04:52:48;11.50;;;2.22;;
51034;SDS011;37062;52.546;13.230;2022-09-17T04:55:16;10.73;;;2.80;;
51034;SDS011;37062;52.546;13.230;2022-09-17T04:57:46;8.13;;;2.63;;
51034;SDS011;37062;52.546;13.230;2022-09-17T05:00:15;4.97;;;1.88;;
51034;SDS011;37062;52.546;13.230;2022-09-17T05:02:44;6.25;;;1.92;;
51034;SDS011;37062;52.546;13.230;2022-09-17T05:05:14;7.28;;;2.60;;
51034;SDS011;37062;52.546;13.230;2022-09-17T05:07:42;7.07;;;1.77;;
51034;SDS011;37062;52.546;13.230;2022-09-17T05:10:10;7.38;;;2.08;;
51034;SDS011;37062;52.546;13.230;2022-09-17T05:12:39;7.28;;;1.90;;
51034;SDS011;37062;52.546;13.230;2022-09-17T05:15:07;7.85;;;2.10;;
51034;SDS011;37062;52.546;13.230;2022-09-17T05:17:34;11.35;;;2.58;;
51034;SDS011;37062;52.546;13.230;2022-09-17T05:20:02;9.27;;;2.00;;
51034;SDS011;37062;52.546;13.230;2022-09-17T05:22:31;9.18;;;2.00;;
51034;SDS011;37062;52.546;13.230;2022-09-17T05:24:58;8.77;;;2.30;;
51034;SDS011;37062;52.546;13.230;2022-09-17T05:27:26;9.77;;;2.45;;
51034;SDS011;37062;52.546;13.230;2022-09-17T05:29:53;5.47;;;1.80;;
51034;SDS011;37062;52.546;13.230;2022-09-17T05:32:21;11.52;;;2.00;;
51034;SDS011;37062;52.546;13.230;2022-09-17T05:34:48;5.72;;;1.95;;
51034;SDS011;37062;52.546;13.230;2022-09-17T05:37:16;12.02;;;2.60;;
51034;SDS011;37062;52.546;13.230;2022-09-17T05:39:44;7.75;;;2.30;;
51034;SDS011;37062;52.546;13.230;2022-09-17T05:42:12;7.82;;;2.28;;
51034;SDS011;37062;52.546;13.230;2022-09-17T05:44:39;7.93;;;2.65;;
51034;SDS011;37062;52.546;13.230;2022-09-17T05:47:07;9.43;;;2.42;;
51034;SDS011;37062;52.546;13.230;2022-09-17T05:49:34;8.68;;;2.50;;
51034;SDS011;37062;52.546;13.230;2022-09-17T05:52:02;10.82;;;2.80;;
51034;SDS011;37062;52.546;13.230;2022-09-17T05:54:30;10.02;;;2.65;;
51034;SDS011;37062;52.546;13.230;2022-09-17T05:56:59;11.85;;;3.03;;
51034;SDS011;37062;52.546;13.230;2022-09-17T05:59:27;12.75;;;2.80;;
51034;SDS011;37062;52.546;13.230;2022-09-17T06:01:55;10.85;;;3.53;;
51034;SDS011;37062;52.546;13.230;2022-09-17T06:04:22;16.63;;;3.63;;
51034;SDS011;37062;52.546;13.230;2022-09-17T06:06:51;10.27;;;2.33;;
51034;SDS011;37062;52.546;13.230;2022-09-17T06:09:19;10.90;;;2.90;;
51034;SDS011;37062;52.546;13.230;2022-09-17T06:11:46;11.30;;;3.20;;
51034;SDS011;37062;52.546;13.230;2022-09-17T06:14:15;13.80;;;3.20;;
51034;SDS011;37062;52.546;13.230;2022-09-17T06:16:43;12.77;;;2.95;;
51034;SDS011;37062;52.546;13.230;2022-09-17T06:19:10;16.50;;;3.97;;
51034;SDS011;37062;52.546;13.230;2022-09-17T06:21:38;12.02;;;3.47;;
51034;SDS011;37062;52.546;13.230;2022-09-17T06:24:05;18.27;;;3.67;;
51034;SDS011;37062;52.546;13.230;2022-09-17T06:26:32;11.18;;;3.22;;
51034;SDS011;37062;52.546;13.230;2022-09-17T06:29:00;19.00;;;4.63;;
51034;SDS011;37062;52.546;13.230;2022-09-17T06:31:29;14.65;;;3.72;;
51034;SDS011;37062;52.546;13.230;2022-09-17T06:33:56;21.95;;;3.85;;
51034;SDS011;37062;52.546;13.230;2022-09-17T06:36:23;16.73;;;4.63;;
51034;SDS011;37062;52.546;13.230;2022-09-17T06:38:51;17.88;;;3.83;;
51034;SDS011;37062;52.546;13.230;2022-09-17T06:41:18;12.07;;;3.42;;
51034;SDS011;37062;52.546;13.230;2022-09-17T06:43:46;14.15;;;3.58;;
51034;SDS011;37062;52.546;13.230;2022-09-17T06:46:13;11.07;;;3.60;;
51034;SDS011;37062;52.546;13.230;2022-09-17T06:48:42;14.57;;;3.88;;
51034;SDS011;37062;52.546;13.230;2022-09-17T06:51:09;12.48;;;2.88;;
51034;SDS011;37062;52.546;13.230;2022-09-17T06:53:39;12.40;;;3.90;;
51034;SDS011;37062;52.546;13.230;2022-09-17T06:56:07;14.60;;;3.35;;
51034;SDS011;37062;52.546;13.230;2022-09-17T06:58:35;12.30;;;3.03;;
51034;SDS011;37062;52.546;13.230;2022-09-17T07:01:03;10.07;;;2.85;;
51034;SDS011;37062;52.546;13.230;2022-09-17T07:03:31;13.48;;;3.15;;
51034;SDS011;37062;52.546;13.230;2022-09-17T07:06:00;11.77;;;3.10;;
51034;SDS011;37062;52.546;13.230;2022-09-17T07:08:30;12.07;;;3.17;;
51034;SDS011;37062;52.546;13.230;2022-09-17T07:10:59;17.23;;;3.90;;
51034;SDS011;37062;52.546;13.230;2022-09-17T07:13:27;12.07;;;3.20;;
51034;SDS011;37062;52.546;13.230;2022-09-17T07:15:54;10.85;;;2.80;;
51034;SDS011;37062;52.546;13.230;2022-09-17T07:18:23;10.90;;;3.25;;
51034;SDS011;37062;52.546;13.230;2022-09-17T07:20:51;13.50;;;3.35;;
51034;SDS011;37062;52.546;13.230;2022-09-17T07:23:22;13.30;;;3.70;;
51034;SDS011;37062;52.546;13.230;2022-09-17T07:25:51;11.40;;;2.75;;
51034;SDS011;37062;52.546;13.230;2022-09-17T07:28:19;14.48;;;3.10;;
51034;SDS011;37062;52.546;13.230;2022-09-17T07:30:47;14.55;;;3.08;;
51034;SDS011;37062;52.546;13.230;2022-09-17T07:33:15;10.57;;;2.35;;
51034;SDS011;37062;52.546;13.230;2022-09-17T07:35:51;9.50;;;2.50;;
51034;SDS011;37062;52.546;13.230;2022-09-17T07:38:19;10.10;;;3.10;;
51034;SDS011;37062;52.546;13.230;2022-09-17T07:40:55;12.68;;;3.08;;
51034;SDS011;37062;52.546;13.230;2022-09-17T07:43:24;13.90;;;2.92;;
51034;SDS011;37062;52.546;13.230;2022-09-17T07:45:52;11.57;;;3.20;;
51034;SDS011;37062;52.546;13.230;2022-09-17T07:48:20;7.50;;;2.45;;
51034;SDS011;37062;52.546;13.230;2022-09-17T07:50:47;14.15;;;2.67;;
51034;SDS011;37062;52.546;13.230;2022-09-17T07:53:15;11.65;;;2.50;;
51034;SDS011;37062;52.546;13.230;2022-09-17T07:55:49;13.35;;;3.47;;
51034;SDS011;37062;52.546;13.230;2022-09-17T07:58:19;12.48;;;3.50;;
51034;SDS011;37062;52.546;13.230;2022-09-17T08:00:47;10.43;;;2.55;;
51034;SDS011;37062;52.546;13.230;2022-09-17T08:03:14;11.88;;;2.97;;
51034;SDS011;37062;52.546;13.230;2022-09-17T08:05:42;10.15;;;2.45;;
51034;SDS011;37062;52.546;13.230;2022-09-17T08:08:09;13.02;;;2.88;;
51034;SDS011;37062;52.546;13.230;2022-09-17T08:10:36;10.43;;;2.30;;
51034;SDS011;37062;52.546;13.230;2022-09-17T08:13:04;9.38;;;2.33;;
51034;SDS011;37062;52.546;13.230;2022-09-17T08:15:33;10.02;;;2.50;;
51034;SDS011;37062;52.546;13.230;2022-09-17T08:18:00;8.32;;;2.35;;
51034;SDS011;37062;52.546;13.230;2022-09-17T08:20:28;8.18;;;2.50;;
51034;SDS011;37062;52.546;13.230;2022-09-17T08:22:58;10.13;;;2.15;;
51034;SDS011;37062;52.546;13.230;2022-09-17T08:25:26;9.50;;;2.40;;
51034;SDS011;37062;52.546;13.230;2022-09-17T08:27:54;11.45;;;2.38;;
51034;SDS011;37062;52.546;13.230;2022-09-17T08:30:22;8.45;;;2.25;;
51034;SDS011;37062;52.546;13.230;2022-09-17T08:32:51;8.32;;;1.88;;
51034;SDS011;37062;52.546;13.230;2022-09-17T08:35:21;9.63;;;2.03;;
51034;SDS011;37062;52.546;13.230;2022-09-17T08:37:49;9.52;;;2.33;;
51034;SDS011;37062;52.546;13.230;2022-09-17T08:40:16;7.30;;;2.25;;
51034;SDS011;37062;52.546;13.230;2022-09-17T08:42:50;8.52;;;2.00;;
51034;SDS011;37062;52.546;13.230;2022-09-17T08:45:21;8.55;;;2.47;;
51034;SDS011;37062;52.546;13.230;2022-09-17T08:47:48;6.97;;;2.40;;
51034;SDS011;37062;52.546;13.230;2022-09-17T08:50:23;13.15;;;3.10;;
51034;SDS011;37062;52.546;13.230;2022-09-17T08:55:49;7.63;;;2.30;;
51034;SDS011;37062;52.546;13.230;2022-09-17T09:01:31;10.13;;;2.20;;
51034;SDS011;37062;52.546;13.230;2022-09-17T09:07:03;11.70;;;2.90;;
51034;SDS011;37062;52.546;13.230;2022-09-17T09:09:35;6.82;;;2.55;;
51034;SDS011;37062;52.546;13.230;2022-09-17T09:12:12;10.35;;;2.40;;
51034;SDS011;37062;52.546;13.230;2022-09-17T09:14:47;5.78;;;1.85;;
51034;SDS011;37062;52.546;13.230;2022-09-17T09:17:17;10.70;;;2.53;;
51034;SDS011;37062;52.546;13.230;2022-09-17T09:19:48;8.40;;;2.47;;
51034;SDS011;37062;52.546;13.230;2022-09-17T09:22:24;8.68;;;2.20;;
51034;SDS011;37062;52.546;13.230;2022-09-17T09:25:03;9.13;;;2.38;;
51034;SDS011;37062;52.546;13.230;2022-09-17T09:27:38;10.90;;;2.78;;
51034;SDS011;37062;52.546;13.230;2022-09-17T09:30:11;7.07;;;2.13;;
51034;SDS011;37062;52.546;13.230;2022-09-17T09:32:44;7.70;;;2.05;;
51034;SDS011;37062;52.546;13.230;2022-09-17T09:35:22;13.57;;;2.50;;
51034;SDS011;37062;52.546;13.230;2022-09-17T09:37:54;7.28;;;2.38;;
51034;SDS011;37062;52.546;13.230;2022-09-17T09:40:33;6.45;;;2.38;;
51034;SDS011;37062;52.546;13.230;2022-09-17T09:43:10;7.45;;;2.40;;
51034;SDS011;37062;52.546;13.230;2022-09-17T09:45:47;9.82;;;2.17;;
51034;SDS011;37062;52.546;13.230;2022-09-17T09:48:31;9.15;;;2.38;;
51034;SDS011;37062;52.546;13.230;2022-09-17T09:51:11;6.93;;;2.38;;
51034;SDS011;37062;52.546;13.230;2022-09-17T09:53:49;7.65;;;1.88;;
51034;SDS011;37062;52.546;13.230;2022-09-17T09:56:39;7.78;;;2.20;;
51034;SDS011;37062;52.546;13.230;2022-09-17T09:59:17;7.05;;;1.70;;
51034;SDS011;37062;52.546;13.230;2022-09-17T10:01:45;7.35;;;1.90;;
51034;SDS011;37062;52.546;13.230;2022-09-17T10:04:17;6.80;;;1.98;;
51034;SDS011;37062;52.546;13.230;2022-09-17T10:07:03;5.97;;;1.90;;
51034;SDS011;37062;52.546;13.230;2022-09-17T10:09:32;6.80;;;1.67;;
51034;SDS011;37062;52.546;13.230;2022-09-17T10:12:02;5.40;;;1.60;;
51034;SDS011;37062;52.546;13.230;2022-09-17T10:14:41;9.10;;;2.05;;
51034;SDS011;37062;52.546;13.230;2022-09-17T10:17:14;8.25;;;2.15;;
51034;SDS011;37062;52.546;13.230;2022-09-17T10:19:44;7.70;;;2.03;;
51034;SDS011;37062;52.546;13.230;2022-09-17T10:22:23;6.20;;;1.90;;
51034;SDS011;37062;52.546;13.230;2022-09-17T10:24:54;12.82;;;2.10;;
51034;SDS011;37062;52.546;13.230;2022-09-17T10:27:23;7.15;;;2.10;;
51034;SDS011;37062;52.546;13.230;2022-09-17T10:29:55;8.50;;;2.25;;
51034;SDS011;37062;52.546;13.230;2022-09-17T10:32:27;8.95;;;2.33;;
51034;SDS011;37062;52.546;13.230;2022-09-17T10:34:59;6.35;;;2.00;;
51034;SDS011;37062;52.546;13.230;2022-09-17T10:37:42;9.25;;;1.98;;
51034;SDS011;37062;52.546;13.230;2022-09-17T10:40:23;8.18;;;1.77;;
51034;SDS011;37062;52.546;13.230;2022-09-17T10:45:55;8.35;;;2.08;;
51034;SDS011;37062;52.546;13.230;2022-09-17T10:48:26;6.32;;;1.85;;
51034;SDS011;37062;52.546;13.230;2022-09-17T10:50:57;6.15;;;1.98;;
51034;SDS011;37062;52.546;13.230;2022-09-17T10:53:30;10.18;;;2.15;;
51034;SDS011;37062;52.546;13.230;2022-09-17T10:56:18;4.95;;;1.90;;
51034;SDS011;37062;52.546;13.230;2022-09-17T10:58:53;6.07;;;1.65;;
51034;SDS011;37062;52.546;13.230;2022-09-17T11:01:30;6.90;;;1.75;;
51034;SDS011;37062;52.546;13.230;2022-09-17T11:04:11;7.45;;;1.83;;
51034;SDS011;37062;52.546;13.230;2022-09-17T11:07:08;8.50;;;2.22;;
51034;SDS011;37062;52.546;13.230;2022-09-17T11:10:08;5.47;;;1.92;;
51034;SDS011;37062;52.546;13.230;2022-09-17T11:12:41;5.40;;;1.52;;
51034;SDS011;37062;52.546;13.230;2022-09-17T11:15:27;7.72;;;1.60;;
51034;SDS011;37062;52.546;13.230;2022-09-17T11:18:11;9.32;;;2.33;;
51034;SDS011;37062;52.546;13.230;2022-09-17T11:20:54;4.97;;;1.83;;
51034;SDS011;37062;52.546;13.230;2022-09-17T11:23:41;4.65;;;1.40;;
51034;SDS011;37062;52.546;13.230;2022-09-17T11:26:25;4.35;;;1.40;;
51034;SDS011;37062;52.546;13.230;2022-09-17T11:29:01;5.15;;;1.45;;
51034;SDS011;37062;52.546;13.230;2022-09-17T11:31:41;5.85;;;1.80;;
51034;SDS011;37062;52.546;13.230;2022-09-17T11:34:19;5.63;;;1.73;;
51034;SDS011;37062;52.546;13.230;2022-09-17T11:36:53;5.28;;;1.33;;
51034;SDS011;37062;52.546;13.230;2022-09-17T11:39:27;5.55;;;1.77;;
51034;SDS011;37062;52.546;13.230;2022-09-17T11:42:05;6.47;;;1.65;;
51034;SDS011;37062;52.546;13.230;2022-09-17T11:44:37;3.75;;;1.35;;
51034;SDS011;37062;52.546;13.230;2022-09-17T11:47:08;3.40;;;1.42;;
51034;SDS011;37062;52.546;13.230;2022-09-17T11:49:41;4.97;;;1.60;;
51034;SDS011;37062;52.546;13.230;2022-09-17T11:52:12;4.68;;;1.48;;
51034;SDS011;37062;52.546;13.230;2022-09-17T11:54:47;3.88;;;1.45;;
51034;SDS011;37062;52.546;13.230;2022-09-17T11:57:19;4.90;;;1.30;;
51034;SDS011;37062;52.546;13.230;2022-09-17T11:59:52;4.53;;;1.38;;
51034;SDS011;37062;52.546;13.230;2022-09-17T12:02:24;3.35;;;1.23;;
51034;SDS011;37062;52.546;13.230;2022-09-17T12:05:00;3.88;;;1.52;;
51034;SDS011;37062;52.546;13.230;2022-09-17T12:07:34;6.28;;;1.25;;
51034;SDS011;37062;52.546;13.230;2022-09-17T12:10:17;3.13;;;1.05;;
51034;SDS011;37062;52.546;13.230;2022-09-17T12:12:56;1.90;;;0.85;;
51034;SDS011;37062;52.546;13.230;2022-09-17T12:15:29;5.78;;;1.42;;
51034;SDS011;37062;52.546;13.230;2022-09-17T12:18:02;5.15;;;1.10;;
51034;SDS011;37062;52.546;13.230;2022-09-17T12:20:43;3.58;;;1.33;;
51034;SDS011;37062;52.546;13.230;2022-09-17T12:23:13;5.88;;;1.48;;
51034;SDS011;37062;52.546;13.230;2022-09-17T12:25:46;7.05;;;1.60;;
51034;SDS011;37062;52.546;13.230;2022-09-17T12:28:24;6.65;;;1.70;;
51034;SDS011;37062;52.546;13.230;2022-09-17T12:30:58;4.88;;;1.60;;
51034;SDS011;37062;52.546;13.230;2022-09-17T12:33:37;4.80;;;1.70;;
51034;SDS011;37062;52.546;13.230;2022-09-17T12:36:15;6.32;;;1.88;;
51034;SDS011;37062;52.546;13.230;2022-09-17T12:42:00;5.38;;;1.50;;
51034;SDS011;37062;52.546;13.230;2022-09-17T12:44:45;4.70;;;1.60;;
51034;SDS011;37062;52.546;13.230;2022-09-17T12:47:33;7.18;;;1.30;;
51034;SDS011;37062;52.546;13.230;2022-09-17T12:50:18;4.07;;;1.25;;
51034;SDS011;37062;52.546;13.230;2022-09-17T12:52:56;6.68;;;1.38;;
51034;SDS011;37062;52.546;13.230;2022-09-17T12:55:40;3.40;;;1.33;;
51034;SDS011;37062;52.546;13.230;2022-09-17T12:58:19;2.67;;;1.15;;
51034;SDS011;37062;52.546;13.230;2022-09-17T13:01:01;3.30;;;1.20;;
51034;SDS011;37062;52.546;13.230;2022-09-17T13:03:33;4.55;;;1.17;;
51034;SDS011;37062;52.546;13.230;2022-09-17T13:06:13;6.00;;;1.35;;
51034;SDS011;37062;52.546;13.230;2022-09-17T13:09:08;3.55;;;1.20;;
51034;SDS011;37062;52.546;13.230;2022-09-17T13:14:59;5.88;;;1.30;;
51034;SDS011;37062;52.546;13.230;2022-09-17T13:17:48;4.15;;;1.30;;
51034;SDS011;37062;52.546;13.230;2022-09-17T13:20:20;4.70;;;1.92;;
51034;SDS011;37062;52.546;13.230;2022-09-17T13:22:53;5.10;;;1.20;;
51034;SDS011;37062;52.546;13.230;2022-09-17T13:25:22;2.95;;;1.08;;
51034;SDS011;37062;52.546;13.230;2022-09-17T13:28:02;5.40;;;1.58;;
51034;SDS011;37062;52.546;13.230;2022-09-17T13:36:34;4.82;;;1.58;;
51034;SDS011;37062;52.546;13.230;2022-09-17T13:42:01;4.15;;;1.35;;
51034;SDS011;37062;52.546;13.230;2022-09-17T13:44:33;3.10;;;1.38;;
51034;SDS011;37062;52.546;13.230;2022-09-17T13:47:10;6.93;;;1.58;;
51034;SDS011;37062;52.546;13.230;2022-09-17T13:49:47;3.72;;;1.48;;
51034;SDS011;37062;52.546;13.230;2022-09-17T13:52:33;4.22;;;1.05;;
51034;SDS011;37062;52.546;13.230;2022-09-17T13:55:04;4.10;;;1.10;;
51034;SDS011;37062;52.546;13.230;2022-09-17T13:57:42;3.70;;;1.08;;
51034;SDS011;37062;52.546;13.230;2022-09-17T14:18:32;5.97;;;1.70;;
51034;SDS011;37062;52.546;13.230;2022-09-17T14:21:12;3.88;;;1.13;;
51034;SDS011;37062;52.546;13.230;2022-09-17T14:23:51;2.88;;;1.02;;
51034;SDS011;37062;52.546;13.230;2022-09-17T14:26:27;3.08;;;1.00;;
51034;SDS011;37062;52.546;13.230;2022-09-17T14:29:07;2.70;;;1.05;;
51034;SDS011;37062;52.546;13.230;2022-09-17T14:31:45;2.80;;;0.85;;
51034;SDS011;37062;52.546;13.230;2022-09-17T14:34:13;2.92;;;0.98;;
51034;SDS011;37062;52.546;13.230;2022-09-17T14:36:45;3.58;;;1.10;;
51034;SDS011;37062;52.546;13.230;2022-09-17T14:39:16;5.70;;;1.35;;
51034;SDS011;37062;52.546;13.230;2022-09-17T14:41:47;3.22;;;1.02;;
51034;SDS011;37062;52.546;13.230;2022-09-17T14:44:17;4.13;;;1.00;;
51034;SDS011;37062;52.546;13.230;2022-09-17T14:46:47;1.77;;;0.70;;
51034;SDS011;37062;52.546;13.230;2022-09-17T14:49:20;1.85;;;0.70;;
51034;SDS011;37062;52.546;13.230;2022-09-17T14:51:48;4.70;;;0.80;;
51034;SDS011;37062;52.546;13.230;2022-09-17T14:54:20;2.10;;;0.60;;
51034;SDS011;37062;52.546;13.230;2022-09-17T14:56:51;3.55;;;1.15;;
51034;SDS011;37062;52.546;13.230;2022-09-17T14:59:29;1.83;;;0.70;;
51034;SDS011;37062;52.546;13.230;2022-09-17T15:02:18;2.47;;;0.70;;
51034;SDS011;37062;52.546;13.230;2022-09-17T15:04:52;2.55;;;0.55;;
51034;SDS011;37062;52.546;13.230;2022-09-17T15:07:21;2.22;;;0.50;;
51034;SDS011;37062;52.546;13.230;2022-09-17T15:09:51;1.52;;;0.70;;
51034;SDS011;37062;52.546;13.230;2022-09-17T15:12:21;3.00;;;1.23;;
51034;SDS011;37062;52.546;13.230;2022-09-17T15:14:55;1.58;;;1.00;;
51034;SDS011;37062;52.546;13.230;2022-09-17T15:17:23;1.90;;;1.08;;
51034;SDS011;37062;52.546;13.230;2022-09-17T15:19:51;1.60;;;0.82;;
51034;SDS011;37062;52.546;13.230;2022-09-17T15:22:23;3.25;;;2.33;;
51034;SDS011;37062;52.546;13.230;2022-09-17T15:24:56;2.05;;;0.70;;
51034;SDS011;37062;52.546;13.230;2022-09-17T15:27:28;1.25;;;0.95;;
51034;SDS011;37062;52.546;13.230;2022-09-17T15:29:58;2.05;;;0.70;;
51034;SDS011;37062;52.546;13.230;2022-09-17T15:32:30;1.83;;;0.75;;
51034;SDS011;37062;52.546;13.230;2022-09-17T15:35:19;2.53;;;0.70;;
51034;SDS011;37062;52.546;13.230;2022-09-17T15:38:00;4.03;;;1.20;;
51034;SDS011;37062;52.546;13.230;2022-09-17T15:40:32;2.72;;;0.68;;
51034;SDS011;37062;52.546;13.230;2022-09-17T15:43:03;2.67;;;1.02;;
51034;SDS011;37062;52.546;13.230;2022-09-17T15:45:40;1.75;;;0.60;;
51034;SDS011;37062;52.546;13.230;2022-09-17T15:48:15;8.40;;;1.10;;
51034;SDS011;37062;52.546;13.230;2022-09-17T15:50:50;1.30;;;0.73;;